Aérodrome :
LOGIN :

S'inscrire | Disclaimer

   EN    FR    IT 

 










Légende :    VFR   VFR Marginal   IFR   IFR Intensif   IFR Très Intensif
Visi : 
Plafond : 
>= 8 km
>= 3000ft
5 à 8 km
1000 à 3000 ft
1500m à 5 km
500 à 1000 ft
800 à 1500m
200 à 500 ft
< 800m
< 200 ft
Symboles :   Orages  Brouillard  Fortes neiges  Fortes précipitations  Vent > 20 kt
SIGMETs :   Divers  Orages  Givrage  Turbulence  Onde Orograph.  Cendres Volcan.






- Altitude de l'aérodrome : 1791 ft
- Code IATA : AOT


LIMW - Aosta

DERNIER METAR :
  • 230650Z AUTO VRB02KT 9999 FEW010/// BKN021/// OVC024/// 14/14 Q1023

METARs EXPIRÉS :
  • 230620Z AUTO 00000KT 9999 FEW019/// BKN024/// OVC029/// 13/13 Q1023
  • 230550Z AUTO 06003KT 020V090 9999 FEW019/// SCT023/// OVC029/// 13/13 Q1023

TAF TAF LIMW
Valide du 23 à 06h jusqu'au 23 à 15h UTC


230500Z 2306/2315 VRB05KT CAVOK
BECMG 2310/2312 11012KT



MET'MAP, la Météo Aéronautique d'un coup d'oeil ! - Copyright ORBIFLY Décembre 2007 - Disclaimer

ORBIFLY MET'MAP TEAM :

Programmation & Développement : Alexandra Zaïnal
Conception & Développement : Baudouin d'Aumeries
Co-Programmation & Développement : Marc-Olivier Méhu
Soutien technique & logistique : Manuel Goepfert

Contact : metmap@orbifly.com




SOURCES & CREDITS :

   NOAA